Time;durP1;ratioP1;P1;durP2;ratioP2;P2;SDS_P1;SDS_P2;PMS_P1;PMS_P2;Temp;Humidity;BMP_temperature;BMP_pressure;BME280_temperature;BME280_humidity;BME280_pressure;Samples;Min_cycle;Max_cycle;Signal;HPM_P1;HPM_P2
2022/08/05 00:00:55;;;;;;;0.00;0.00;;;21.70;65.90;;;23.09;56.34;101624.59;2025404;29;20512;-76
2022/08/05 00:02:18;;;;;;;0.00;0.00;;;21.60;66.10;;;23.12;56.37;101623.81;2024639;29;20056;-76
2022/08/05 00:03:21;;;;;;;0.10;0.10;;;21.60;66.30;;;23.12;56.20;101627.31;2031932;29;20064;-76
2022/08/05 00:04:27;;;;;;;0.03;0.03;;;21.60;66.30;;;23.14;56.27;101630.47;2033808;29;20056;-76
2022/08/05 00:05:30;;;;;;;0.00;0.00;;;21.60;66.30;;;23.15;56.11;101631.25;2039208;29;20052;-75
2022/08/05 00:06:53;;;;;;;0.00;0.00;;;21.60;66.40;;;23.16;56.04;101630.84;2026737;29;20138;-76
2022/08/05 00:07:57;;;;;;;0.10;0.10;;;21.60;66.40;;;23.16;56.15;101639.09;2028655;29;20078;-76
2022/08/05 00:09:05;;;;;;;0.00;0.00;;;21.60;66.50;;;23.13;56.46;101628.91;2029359;29;20161;-76
2022/08/05 00:10:18;;;;;;;0.00;0.00;;;21.60;66.50;;;23.17;56.37;101623.34;2031005;29;20079;-77
2022/08/05 00:11:28;;;;;;;0.03;0.03;;;21.60;66.50;;;23.16;56.09;101628.09;2024242;29;20547;-76
2022/08/05 00:12:37;;;;;;;0.00;0.00;;;21.60;66.60;;;23.17;56.33;101617.84;2022527;29;20092;-76
2022/08/05 00:13:59;;;;;;;0.00;0.00;;;21.60;66.60;;;23.17;56.04;101613.13;2028884;29;20119;-76
2022/08/05 00:15:06;;;;;;;0.00;0.00;;;21.60;66.80;;;23.18;56.34;101619.41;2023113;29;20044;-76
2022/08/05 00:16:30;;;;;;;0.00;0.00;;;21.60;66.80;;;23.19;56.41;101620.97;2028770;29;20122;-76
2022/08/05 00:17:54;;;;;;;0.00;0.00;;;21.50;66.80;;;23.20;56.32;101606.00;2039264;29;20098;-76
2022/08/05 00:18:56;;;;;;;0.00;0.00;;;21.50;67.00;;;23.17;56.31;101612.31;2032071;29;20412;-77
2022/08/05 00:19:59;;;;;;;0.00;0.00;;;21.50;67.00;;;23.14;56.57;101610.38;2037726;29;20079;-77
2022/08/05 00:21:05;;;;;;;0.00;0.00;;;21.50;67.10;;;23.10;56.58;101609.66;2032261;29;20072;-77
2022/08/05 00:22:11;;;;;;;0.00;0.00;;;21.50;67.10;;;23.09;56.73;101610.81;2024940;29;20085;-77
2022/08/05 00:23:13;;;;;;;0.00;0.00;;;21.50;67.10;;;23.05;56.73;101605.34;2030344;29;20525;-77
2022/08/05 00:24:18;;;;;;;0.00;0.00;;;21.50;67.10;;;23.08;56.79;101617.53;2031939;29;20048;-77
2022/08/05 00:25:32;;;;;;;0.00;0.00;;;21.50;67.10;;;23.08;56.68;101610.06;2017381;29;20107;-77
2022/08/05 00:26:48;;;;;;;0.00;0.00;;;21.50;67.10;;;23.07;56.49;101602.19;2022152;29;20512;-77
2022/08/05 00:27:53;;;;;;;0.00;0.00;;;21.50;67.10;;;23.02;56.73;101610.91;2026881;29;20516;-76
2022/08/05 00:28:57;;;;;;;0.00;0.00;;;21.50;67.20;;;22.98;56.92;101604.63;2024476;29;20056;-77
2022/08/05 00:30:00;;;;;;;0.00;0.00;;;21.40;67.20;;;22.97;56.85;101614.88;2038417;29;20075;-77
2022/08/05 00:31:06;;;;;;;0.00;0.00;;;21.50;67.30;;;22.96;57.10;101607.78;2027709;29;20064;-77
2022/08/05 00:32:12;;;;;;;0.00;0.00;;;21.40;67.40;;;22.97;56.82;101614.06;2021396;29;20104;-77
2022/08/05 00:33:18;;;;;;;0.10;0.10;;;21.40;67.50;;;22.95;57.02;101600.72;2014644;29;21916;-77
2022/08/05 00:34:42;;;;;;;0.00;0.00;;;21.40;67.50;;;22.92;57.48;101589.72;2021823;29;20041;-77
2022/08/05 00:36:05;;;;;;;0.00;0.00;;;21.40;67.50;;;22.98;57.24;101596.34;2024177;29;20053;-76
2022/08/05 00:37:19;;;;;;;0.00;0.00;;;21.40;67.50;;;22.96;56.76;101588.50;2026755;29;20052;-76
2022/08/05 00:38:21;;;;;;;0.00;0.00;;;21.40;67.60;;;22.96;56.84;101588.50;2032898;29;20051;-77
2022/08/05 00:39:39;;;;;;;0.00;0.00;;;21.40;67.60;;;22.97;57.09;101592.03;2026917;29;20619;-76
2022/08/05 00:40:48;;;;;;;0.00;0.00;;;21.40;67.70;;;22.96;57.04;101593.25;2027600;29;20480;-76
2022/08/05 00:41:55;;;;;;;0.00;0.00;;;21.40;67.80;;;22.96;57.29;101601.50;2034335;29;20055;-76
2022/08/05 00:43:00;;;;;;;0.00;0.00;;;21.40;67.70;;;22.93;57.29;101594.06;2018596;29;20140;-77
2022/08/05 00:44:05;;;;;;;0.03;0.03;;;21.40;67.80;;;22.91;57.10;101577.16;2017886;29;20421;-78
2022/08/05 00:45:09;;;;;;;0.00;0.00;;;21.40;67.80;;;22.91;57.39;101583.41;2033847;29;20048;-76
2022/08/05 00:46:16;;;;;;;0.00;0.00;;;21.40;67.80;;;22.90;57.18;101592.09;2025044;29;20064;-76
2022/08/05 00:47:40;;;;;;;0.10;0.10;;;21.40;67.80;;;22.90;57.58;101592.88;2027674;29;20063;-76
2022/08/05 00:49:00;;;;;;;0.00;0.00;;;21.40;67.90;;;22.89;57.06;101593.28;2031037;29;20048;-77
2022/08/05 00:50:05;;;;;;;0.00;0.00;;;21.30;67.80;;;22.87;57.62;101592.91;2029899;29;20044;-76
2022/08/05 00:51:09;;;;;;;0.00;0.00;;;21.30;67.80;;;22.85;57.33;101596.06;2024914;29;20052;-76
2022/08/05 00:52:32;;;;;;;0.10;0.10;;;21.30;67.80;;;22.83;57.20;101592.94;2028523;29;20067;-76
2022/08/05 00:53:41;;;;;;;0.00;0.00;;;21.30;67.90;;;22.81;57.46;101586.28;2018242;29;20131;-77
2022/08/05 00:55:07;;;;;;;0.00;0.00;;;21.30;67.90;;;22.79;57.36;101597.69;2012146;29;20108;-76
2022/08/05 00:56:10;;;;;;;0.10;0.10;;;21.30;67.90;;;22.77;57.47;101591.03;2015200;29;20599;-75
2022/08/05 00:57:14;;;;;;;0.00;0.00;;;21.30;67.90;;;22.76;57.90;101600.47;2016519;29;20065;-76
2022/08/05 00:58:23;;;;;;;0.00;0.00;;;21.30;67.90;;;22.77;57.64;101607.56;2024921;29;20636;-77
2022/08/05 00:59:29;;;;;;;0.03;0.03;;;21.30;68.00;;;22.75;57.65;101604.41;2024285;29;20057;-76
2022/08/05 01:00:47;;;;;;;0.10;0.10;;;21.30;68.10;;;22.74;57.46;101611.13;2023255;29;20474;-76
2022/08/05 01:01:51;;;;;;;0.00;0.00;;;21.20;68.10;;;22.73;57.70;101604.03;2022912;29;20477;-77
2022/08/05 01:02:56;;;;;;;0.00;0.00;;;21.20;68.10;;;22.72;57.65;101607.97;2009586;29;20114;-76
2022/08/05 01:04:02;;;;;;;0.00;0.00;;;21.20;68.20;;;22.69;57.59;101604.03;2012713;29;20049;-76
2022/08/05 01:05:15;;;;;;;0.10;0.10;;;21.20;68.20;;;22.68;57.99;101604.44;2013577;29;20057;-76
2022/08/05 01:06:19;;;;;;;0.00;0.00;;;21.20;68.30;;;22.68;58.20;101608.00;2017069;29;20473;-76
2022/08/05 01:07:33;;;;;;;0.10;0.10;;;21.20;68.90;;;22.66;57.61;101598.59;2018405;29;20092;-76
2022/08/05 01:08:38;;;;;;;0.00;0.00;;;21.20;68.40;;;22.67;57.58;101605.66;2016817;29;20410;-76
2022/08/05 01:09:46;;;;;;;0.10;0.10;;;21.20;68.40;;;22.66;57.83;101610.34;2017861;29;20137;-76
2022/08/05 01:11:06;;;;;;;0.00;0.00;;;21.20;68.40;;;22.64;57.51;101601.75;2018550;29;20462;-75
2022/08/05 01:12:16;;;;;;;0.05;0.05;;;21.10;68.40;;;22.63;58.20;101599.41;2024421;29;20547;-76
2022/08/05 01:13:32;;;;;;;0.00;0.00;;;21.20;68.40;;;22.63;58.29;101611.16;2023995;29;20107;-76
2022/08/05 01:15:01;;;;;;;0.00;0.00;;;21.20;68.60;;;22.64;58.01;101617.47;2029003;29;20052;-76
2022/08/05 01:16:15;;;;;;;0.03;0.03;;;21.10;68.50;;;22.64;58.03;101618.25;2032467;29;20083;-76
2022/08/05 01:17:37;;;;;;;0.00;0.00;;;21.20;68.50;;;22.60;57.89;101623.00;2032566;29;20528;-76
2022/08/05 01:18:53;;;;;;;0.00;0.00;;;21.10;68.30;;;22.59;58.06;101620.66;2031569;29;20044;-76
2022/08/05 01:20:17;;;;;;;0.00;0.00;;;21.20;68.40;;;22.59;57.77;101620.66;2016815;29;20087;-76
2022/08/05 01:21:50;;;;;;;0.00;0.00;;;21.10;68.30;;;22.57;58.13;101620.25;2022172;29;20492;-76
2022/08/05 01:23:11;;;;;;;0.00;0.00;;;21.10;68.30;;;22.54;58.07;101615.56;2035894;29;20060;-76
2022/08/05 01:24:44;;;;;;;;;;;21.10;68.30;;;22.54;57.87;101619.09;2031761;29;20074;-76
2022/08/05 01:26:13;;;;;;;0.05;0.05;;;21.00;68.90;;;22.52;57.52;101620.66;2028827;29;19954;-76
2022/08/05 01:27:43;;;;;;;0.00;0.00;;;21.00;68.50;;;22.49;57.69;101624.19;2031933;29;20047;-77
2022/08/05 01:29:03;;;;;;;0.00;0.00;;;21.00;68.60;;;22.48;57.90;101628.16;2033703;29;20040;-76
2022/08/05 01:30:08;;;;;;;0.00;0.00;;;21.00;68.40;;;22.45;57.91;101620.69;2028219;29;20250;-76
2022/08/05 01:31:29;;;;;;;0.10;0.10;;;21.00;68.50;;;22.42;58.37;101621.50;2033895;29;20068;-75
2022/08/05 01:32:37;;;;;;;0.00;0.00;;;21.00;68.70;;;22.39;58.31;101617.56;2017844;29;20061;-76
2022/08/05 01:33:48;;;;;;;0.00;0.00;;;21.00;68.70;;;22.36;58.48;101609.38;2023981;29;20605;-76
2022/08/05 01:35:02;;;;;;;0.00;0.00;;;21.00;68.70;;;22.39;58.57;101627.81;2025245;29;20056;-78
2022/08/05 01:36:16;;;;;;;0.00;0.00;;;21.00;68.70;;;22.38;58.68;101620.72;2034319;29;20523;-76
2022/08/05 01:37:32;;;;;;;0.00;0.00;;;21.00;68.80;;;22.38;58.50;101628.97;2032266;29;20063;-76
2022/08/05 01:38:38;;;;;;;0.10;0.10;;;20.90;69.40;;;22.40;58.12;101634.88;2019485;29;20041;-76
2022/08/05 01:39:49;;;;;;;0.10;0.10;;;20.90;68.80;;;22.40;58.56;101629.38;2016550;29;20119;-76
2022/08/05 01:40:53;;;;;;;0.10;0.10;;;20.90;68.90;;;22.41;58.20;101636.44;2023601;29;20524;-76
2022/08/05 01:41:58;;;;;;;0.00;0.00;;;20.90;68.80;;;22.40;58.32;101632.13;2020278;29;20057;-76
2022/08/05 01:43:04;;;;;;;0.00;0.00;;;20.90;68.80;;;22.39;58.25;101634.09;2025740;29;20143;-76
2022/08/05 01:44:10;;;;;;;0.00;0.00;;;21.00;68.90;;;22.41;58.29;101631.72;2031201;29;20066;-76
2022/08/05 01:45:19;;;;;;;0.00;0.00;;;21.00;68.90;;;22.42;58.06;101621.50;2026502;29;20100;-78
2022/08/05 01:46:26;;;;;;;0.00;0.00;;;21.00;68.80;;;22.40;58.54;101615.63;2024202;29;20136;-76
2022/08/05 01:47:51;;;;;;;0.00;0.00;;;21.00;68.80;;;22.40;58.48;101613.66;2028409;29;20060;-76
2022/08/05 01:48:59;;;;;;;0.00;0.00;;;20.90;68.90;;;22.40;58.41;101608.16;2030449;29;20131;-77
2022/08/05 01:50:28;;;;;;;0.00;0.00;;;20.90;69.00;;;22.37;58.56;101608.97;2023535;29;20470;-76
2022/08/05 01:51:35;;;;;;;0.10;0.10;;;20.90;69.20;;;22.35;58.60;101605.03;2019082;29;20063;-76
2022/08/05 01:52:42;;;;;;;0.00;0.00;;;20.90;69.20;;;22.35;58.66;101603.06;2022074;29;20060;-77
2022/08/05 01:53:50;;;;;;;0.00;0.00;;;20.90;69.20;;;22.33;58.47;101601.88;2032313;29;20048;-77
2022/08/05 01:55:06;;;;;;;0.10;0.10;;;20.90;69.20;;;22.35;58.23;101602.28;2031093;29;20044;-76
2022/08/05 01:56:12;;;;;;;0.00;0.00;;;20.80;69.20;;;22.34;58.31;101597.97;2031642;29;20048;-77
2022/08/05 01:57:40;;;;;;;0.00;0.00;;;20.80;69.30;;;22.31;58.30;101598.78;2025408;29;20087;-76
2022/08/05 01:59:10;;;;;;;0.00;0.00;;;20.80;69.30;;;22.30;58.54;101605.44;2031694;29;20456;-76
2022/08/05 02:00:15;;;;;;;0.00;0.00;;;20.80;69.40;;;22.30;58.26;101611.75;2031550;29;20055;-76
2022/08/05 02:01:19;;;;;;;0.00;0.00;;;20.80;69.30;;;22.28;58.44;101616.09;2028616;29;20104;-76
2022/08/05 02:02:31;;;;;;;0.00;0.00;;;20.80;69.20;;;22.23;58.75;101603.53;2031764;29;20060;-76
2022/08/05 02:03:42;;;;;;;0.00;0.00;;;20.80;69.30;;;22.23;58.41;101607.06;2025311;29;20525;-76
2022/08/05 02:04:48;;;;;;;0.00;0.00;;;20.70;69.40;;;22.21;58.77;101616.91;2031199;29;20051;-77
2022/08/05 02:05:53;;;;;;;0.00;0.00;;;20.70;69.40;;;22.17;58.86;101610.63;2031792;29;20055;-76
2022/08/05 02:07:02;;;;;;;0.00;0.00;;;20.70;69.40;;;22.16;59.00;101611.81;2026113;29;20582;-76
2022/08/05 02:08:07;;;;;;;0.10;0.10;;;20.70;69.40;;;22.16;59.13;101609.84;2030662;29;20075;-76
2022/08/05 02:09:11;;;;;;;0.00;0.00;;;20.70;69.50;;;22.15;58.75;101610.25;2024463;29;20087;-77
2022/08/05 02:10:17;;;;;;;0.00;0.00;;;20.70;69.50;;;22.15;59.11;101605.53;2023535;29;20505;-77
2022/08/05 02:11:42;;;;;;;0.00;0.00;;;20.70;69.60;;;22.14;59.20;101605.91;2030044;29;20056;-77
2022/08/05 02:13:00;;;;;;;0.10;0.10;;;20.70;70.30;;;22.12;59.23;101609.06;2031384;29;20439;-75
2022/08/05 02:14:13;;;;;;;0.00;0.00;;;20.70;69.80;;;22.07;58.78;101606.72;2022393;29;20053;-75
2022/08/05 02:15:24;;;;;;;0.00;0.00;;;20.70;69.80;;;22.07;59.50;101617.72;2026687;29;20052;-76
2022/08/05 02:16:45;;;;;;;0.00;0.00;;;20.70;69.80;;;22.04;59.55;101618.53;2023393;29;20071;-76
2022/08/05 02:18:01;;;;;;;0.00;0.00;;;20.60;69.90;;;22.03;59.13;101618.94;2019528;29;20053;-76
2022/08/05 02:19:32;;;;;;;0.05;0.05;;;20.60;69.90;;;22.01;59.12;101605.59;2025715;29;20060;-76
2022/08/05 02:20:44;;;;;;;0.00;0.00;;;20.60;70.00;;;21.94;59.06;101604.84;2022020;29;20132;-76
2022/08/05 02:21:57;;;;;;;0.00;0.00;;;20.50;70.00;;;21.95;59.13;101598.94;2024431;29;20053;-76
2022/08/05 02:23:06;;;;;;;0.00;0.00;;;20.50;70.20;;;21.93;59.19;101606.78;2023313;29;20167;-77
2022/08/05 02:24:19;;;;;;;0.10;0.10;;;20.50;70.20;;;21.87;59.73;101600.16;2020973;29;20055;-76
2022/08/05 02:25:31;;;;;;;0.05;0.05;;;20.50;70.40;;;21.87;59.65;101600.16;2031991;29;20095;-77
2022/08/05 02:26:46;;;;;;;0.00;0.00;;;20.50;70.30;;;21.84;59.49;101598.19;2024606;29;20120;-77
2022/08/05 02:27:57;;;;;;;0.00;0.00;;;20.50;70.40;;;21.82;59.75;101605.25;2033458;29;20059;-77
2022/08/05 02:29:03;;;;;;;0.05;0.05;;;20.40;70.30;;;21.80;59.78;101608.41;2035811;29;20127;-76
2022/08/05 02:30:11;;;;;;;0.00;0.00;;;20.40;70.40;;;21.77;59.67;101602.94;2031646;29;20102;-76
2022/08/05 02:31:21;;;;;;;0.00;0.00;;;20.40;70.50;;;21.74;60.08;101612.72;2018607;29;20132;-77
2022/08/05 02:32:27;;;;;;;0.10;0.10;;;20.40;70.50;;;21.74;60.30;101615.47;2021755;29;20075;-76
2022/08/05 02:33:39;;;;;;;0.00;0.00;;;20.30;70.50;;;21.70;60.04;101611.97;2028227;29;20480;-77
2022/08/05 02:34:42;;;;;;;0.00;0.00;;;20.30;70.70;;;21.68;59.92;101614.31;2023111;29;20489;-76
2022/08/05 02:35:59;;;;;;;0.00;0.00;;;20.30;70.80;;;21.65;60.18;101615.09;2025429;29;20477;-77
2022/08/05 02:37:07;;;;;;;0.00;0.00;;;20.20;71.10;;;21.61;59.95;101611.56;2026131;29;20083;-77
2022/08/05 02:38:12;;;;;;;0.00;0.00;;;20.10;71.30;;;21.61;60.02;101616.31;2022801;29;20088;-77
2022/08/05 02:39:22;;;;;;;0.00;0.00;;;20.10;71.40;;;21.60;60.47;101615.50;2028940;29;20095;-77
2022/08/05 02:40:26;;;;;;;0.00;0.00;;;20.10;71.50;;;21.59;60.31;101613.94;2031266;29;20068;-76
2022/08/05 02:41:31;;;;;;;0.00;0.00;;;20.10;71.50;;;21.58;60.51;101612.38;2031228;29;20090;-77
2022/08/05 02:42:56;;;;;;;0.10;0.10;;;20.10;71.50;;;21.58;60.16;101611.59;2032257;29;20159;-77
2022/08/05 02:44:00;;;;;;;0.00;0.00;;;20.10;71.50;;;21.60;60.38;101614.72;2031371;29;20420;-77
2022/08/05 02:45:17;;;;;;;0.00;0.00;;;20.10;71.50;;;21.62;60.55;101618.66;2032645;29;20444;-76
2022/08/05 02:46:20;;;;;;;0.00;0.00;;;20.10;71.50;;;21.61;60.45;101617.06;2038699;29;20528;-76
2022/08/05 02:47:33;;;;;;;;;;;20.10;71.60;;;21.63;60.43;101619.41;2038321;29;20090;-76
2022/08/05 02:48:57;;;;;;;0.10;0.10;;;20.10;72.10;;;21.62;59.73;101626.91;2037000;29;20025;-77
2022/08/05 02:50:01;;;;;;;0.10;0.10;;;20.10;71.50;;;21.62;59.87;101626.09;2023563;29;20056;-77
2022/08/05 02:51:05;;;;;;;0.03;0.03;;;20.10;71.50;;;21.59;60.53;101630.44;2022751;29;20520;-77
2022/08/05 02:52:14;;;;;;;0.00;0.00;;;20.10;71.50;;;21.57;60.70;101630.03;2024139;29;20101;-77
2022/08/05 02:53:32;;;;;;;0.00;0.00;;;20.10;71.50;;;21.58;60.49;101625.34;2026304;29;20134;-77
2022/08/05 02:54:44;;;;;;;0.00;0.00;;;20.10;71.50;;;21.57;60.27;101632.78;2030936;29;20443;-77
2022/08/05 02:55:54;;;;;;;0.00;0.00;;;20.10;71.50;;;21.56;60.18;101631.22;2030689;29;20086;-77
2022/08/05 02:57:08;;;;;;;0.00;0.00;;;20.10;71.60;;;21.53;60.40;101629.25;2031996;29;20424;-77
2022/08/05 02:58:31;;;;;;;0.05;0.05;;;20.10;71.70;;;21.55;60.66;101634.38;2026499;29;20164;-77
2022/08/05 02:59:36;;;;;;;0.00;0.00;;;20.00;71.80;;;21.52;60.50;101626.91;2030708;29;20389;-77
2022/08/05 03:00:56;;;;;;;0.00;0.00;;;19.90;71.90;;;21.49;60.73;101625.75;2030195;29;20058;-77
2022/08/05 03:02:00;;;;;;;0.00;0.00;;;19.90;72.10;;;21.46;60.56;101626.53;2032186;29;20401;-77
2022/08/05 03:03:05;;;;;;;0.00;0.00;;;19.90;72.30;;;21.45;61.14;101627.72;2022629;29;20654;-77
2022/08/05 03:04:14;;;;;;;0.00;0.00;;;19.80;72.30;;;21.45;61.04;101635.97;2019186;29;20057;-77
2022/08/05 03:05:19;;;;;;;0.08;0.08;;;19.90;72.50;;;21.44;61.04;101631.63;2018297;29;20060;-77
2022/08/05 03:06:43;;;;;;;0.10;0.10;;;19.90;72.50;;;21.46;61.27;101632.03;2022467;29;20086;-77
2022/08/05 03:08:01;;;;;;;0.10;0.10;;;19.90;72.40;;;21.44;60.53;101620.63;2017012;29;20049;-77
2022/08/05 03:09:13;;;;;;;0.10;0.10;;;19.90;72.30;;;21.45;60.99;101630.47;2006831;29;20193;-77
2022/08/05 03:10:29;;;;;;;0.00;0.00;;;19.90;72.80;;;21.45;60.90;101629.69;2027257;29;20057;-77
2022/08/05 03:11:32;;;;;;;0.00;0.00;;;19.90;72.20;;;21.44;60.55;101626.13;2036598;29;20055;-77
2022/08/05 03:12:55;;;;;;;0.00;0.00;;;19.90;72.20;;;21.44;60.81;101634.38;2027366;29;20135;-77
2022/08/05 03:13:57;;;;;;;0.00;0.00;;;19.90;72.20;;;21.44;61.00;101631.63;2030941;29;20135;-77
2022/08/05 03:15:10;;;;;;;0.00;0.00;;;20.00;72.20;;;21.43;60.80;101632.81;2039080;29;20059;-77
2022/08/05 03:16:15;;;;;;;0.00;0.00;;;20.00;72.20;;;21.43;61.13;101632.81;2025534;29;20587;-76
2022/08/05 03:17:22;;;;;;;0.00;0.00;;;20.00;72.20;;;21.45;60.55;101626.94;2027345;29;20096;-77
2022/08/05 03:18:26;;;;;;;0.00;0.00;;;19.90;72.20;;;21.42;61.00;101622.22;2029638;29;20151;-77
2022/08/05 03:19:32;;;;;;;0.10;0.10;;;19.90;72.30;;;21.43;61.10;101638.31;2022507;29;20048;-77
2022/08/05 03:20:37;;;;;;;0.10;0.10;;;19.90;72.30;;;21.44;61.21;101637.13;2030252;29;20056;-76
2022/08/05 03:21:50;;;;;;;0.00;0.00;;;19.90;72.40;;;21.44;61.14;101634.38;2030341;29;20127;-78
2022/08/05 03:22:54;;;;;;;0.00;0.00;;;19.90;72.40;;;21.43;60.98;101641.06;2024707;29;20564;-77
2022/08/05 03:24:00;;;;;;;0.10;0.10;;;19.90;72.40;;;21.42;61.06;101636.72;2039205;29;20594;-77
2022/08/05 03:25:05;;;;;;;0.10;0.10;;;19.90;72.40;;;21.42;60.59;101635.97;2031668;29;20048;-78
2022/08/05 03:26:28;;;;;;;0.00;0.00;;;19.90;72.40;;;21.41;60.96;101629.69;2027062;29;20148;-78
2022/08/05 03:27:33;;;;;;;0.00;0.00;;;19.80;72.40;;;21.40;60.92;101632.81;2030624;29;20075;-77
2022/08/05 03:28:57;;;;;;;0.00;0.00;;;19.90;72.50;;;21.41;60.79;101634.38;2038422;29;20591;-77
2022/08/05 03:30:00;;;;;;;0.00;0.00;;;19.80;72.40;;;21.40;61.01;101636.34;2033678;29;20079;-78
2022/08/05 03:31:12;;;;;;;0.05;0.05;;;19.80;72.40;;;21.39;60.67;101634.78;2032556;29;20480;-77
2022/08/05 03:32:38;;;;;;;0.10;0.10;;;19.80;72.30;;;21.35;60.55;101625.75;2026230;29;20048;-76
2022/08/05 03:33:41;;;;;;;0.00;0.00;;;19.80;72.50;;;21.36;60.63;101624.56;2023281;29;20091;-77
2022/08/05 03:34:55;;;;;;;0.10;0.10;;;19.80;72.40;;;21.36;60.75;101621.81;2021411;29;20051;-78
2022/08/05 03:35:58;;;;;;;0.00;0.00;;;19.80;72.40;;;21.34;60.63;101615.97;2024286;29;20101;-78
2022/08/05 03:37:03;;;;;;;0.10;0.10;;;19.80;72.40;;;21.33;60.89;101611.63;2027657;29;20647;-77
2022/08/05 03:38:07;;;;;;;0.00;0.00;;;19.80;72.50;;;21.32;60.87;101615.56;2029886;29;20867;-77
2022/08/05 03:39:10;;;;;;;0.10;0.10;;;19.80;72.50;;;21.32;61.04;101621.06;2038282;29;20516;-77
2022/08/05 03:40:22;;;;;;;0.00;0.00;;;19.80;72.50;;;21.32;61.11;101621.06;2034516;29;20059;-76
2022/08/05 03:41:35;;;;;;;0.10;0.10;;;19.80;72.40;;;21.32;61.05;101626.56;2030537;29;20055;-77
2022/08/05 03:42:47;;;;;;;0.00;0.00;;;19.90;73.00;;;21.33;61.25;101619.06;2016412;29;20057;-77
2022/08/05 03:43:54;;;;;;;0.03;0.03;;;19.80;72.40;;;21.31;60.82;101624.97;2023116;29;20090;-77
2022/08/05 03:45:13;;;;;;;0.10;0.10;;;19.80;72.40;;;21.30;60.89;101623.41;2032080;29;20063;-77
2022/08/05 03:46:25;;;;;;;0.00;0.00;;;19.80;72.40;;;21.31;60.87;101624.19;2026602;29;20532;-77
2022/08/05 03:47:35;;;;;;;0.10;0.10;;;19.80;72.60;;;21.29;61.05;101616.34;2030070;29;20052;-78
2022/08/05 03:48:44;;;;;;;0.00;0.00;;;19.80;72.50;;;21.29;60.98;101615.56;2039205;29;20419;-77
2022/08/05 03:49:48;;;;;;;0.10;0.10;;;19.80;72.50;;;21.30;61.18;101606.13;2029710;29;20052;-77
2022/08/05 03:51:07;;;;;;;0.00;0.00;;;19.80;72.50;;;21.28;61.09;101614.78;2030123;29;20107;-77
2022/08/05 03:52:36;;;;;;;0.10;0.10;;;19.80;72.60;;;21.28;61.14;101614.00;2027997;29;20139;-77
2022/08/05 03:54:08;;;;;;;0.10;0.10;;;19.80;72.60;;;21.22;61.05;101604.56;2024991;29;20048;-77
2022/08/05 03:55:36;;;;;;;0.10;0.10;;;19.70;72.60;;;21.22;60.92;101616.34;2029747;29;20048;-77
2022/08/05 03:57:00;;;;;;;0.10;0.10;;;19.70;72.60;;;21.19;60.85;101610.84;2025467;29;20079;-76
2022/08/05 03:58:21;;;;;;;0.10;0.10;;;19.70;72.60;;;21.18;61.24;101612.84;2031756;29;20056;-77
2022/08/05 03:59:40;;;;;;;0.10;0.10;;;19.70;72.60;;;21.16;61.10;101620.69;2033317;29;20424;-77
2022/08/05 04:00:59;;;;;;;0.00;0.00;;;19.70;72.60;;;21.14;61.49;101609.28;2031153;29;20052;-77
2022/08/05 04:02:03;;;;;;;0.10;0.10;;;19.70;72.60;;;21.11;61.62;101609.28;2025257;29;20060;-77
2022/08/05 04:03:11;;;;;;;0.00;0.00;;;19.70;72.60;;;21.11;61.73;101609.28;2025272;29;20080;-78
2022/08/05 04:04:32;;;;;;;0.00;0.00;;;19.70;72.70;;;21.10;61.51;101616.75;2035434;29;20084;-78
2022/08/05 04:05:37;;;;;;;0.10;0.10;;;19.70;72.70;;;21.09;61.71;101617.91;2039352;29;20490;-77
2022/08/05 04:06:44;;;;;;;0.05;0.05;;;19.70;72.60;;;21.09;61.65;101612.44;2028551;29;20063;-78
2022/08/05 04:07:52;;;;;;;0.10;0.10;;;19.70;72.60;;;21.08;61.79;101608.13;2031148;29;20396;-78
2022/08/05 04:09:04;;;;;;;0.05;0.05;;;19.70;72.70;;;21.04;61.53;101601.84;2033781;29;20052;-77
2022/08/05 04:10:09;;;;;;;0.10;0.10;;;19.70;72.70;;;21.07;61.76;101601.06;2030731;29;20063;-78
2022/08/05 04:11:20;;;;;;;0.10;0.10;;;19.60;72.70;;;21.06;61.64;101599.50;2033324;29;20112;-78
2022/08/05 04:12:24;;;;;;;0.10;0.10;;;19.60;72.80;;;21.05;61.29;101603.41;2033565;29;20052;-78
2022/08/05 04:13:28;;;;;;;0.10;0.10;;;19.60;72.80;;;21.04;61.44;101604.56;2023632;29;20104;-77
2022/08/05 04:14:52;;;;;;;0.10;0.10;;;19.60;72.90;;;21.05;61.94;101610.88;2021627;29;20084;-77
2022/08/05 04:15:59;;;;;;;0.08;0.08;;;19.60;72.90;;;21.05;61.79;101610.88;2023807;29;20497;-77
2022/08/05 04:17:10;;;;;;;0.08;0.08;;;19.60;73.00;;;21.02;61.84;101609.69;2024432;29;20063;-77
2022/08/05 04:18:15;;;;;;;0.10;0.10;;;19.50;73.00;;;21.03;61.77;101613.22;2036563;29;20187;-76
2022/08/05 04:19:24;;;;;;;0.10;0.10;;;19.50;73.00;;;21.02;61.39;101615.19;2021563;29;20048;-77
2022/08/05 04:20:29;;;;;;;0.10;0.10;;;19.50;73.10;;;21.01;61.65;101610.84;2014208;29;20080;-76
2022/08/05 04:21:33;;;;;;;0.10;0.10;;;19.50;73.20;;;21.00;61.63;101622.22;2016901;29;20061;-76
2022/08/05 04:22:56;;;;;;;0.10;0.10;;;19.50;73.20;;;20.99;62.03;101615.97;2023037;29;20108;-77
2022/08/05 04:24:00;;;;;;;0.10;0.10;;;19.50;73.40;;;20.98;61.68;101621.88;2029381;29;20050;-76
2022/08/05 04:25:09;;;;;;;0.10;0.10;;;19.50;73.50;;;20.92;61.89;101613.19;2031917;29;20583;-77
2022/08/05 04:26:14;;;;;;;0.10;0.10;;;19.40;73.50;;;20.91;61.91;101622.59;2029682;29;20103;-77
2022/08/05 04:27:18;;;;;;;0.10;0.10;;;19.40;73.60;;;20.88;62.23;101623.41;2030784;29;20063;-77
2022/08/05 04:28:42;;;;;;;0.10;0.10;;;19.40;73.70;;;20.87;62.13;101627.28;2028355;29;20076;-77
2022/08/05 04:29:53;;;;;;;0.10;0.10;;;19.30;73.90;;;20.84;62.09;101625.34;2024712;29;20060;-76
2022/08/05 04:30:56;;;;;;;0.08;0.08;;;19.30;74.00;;;20.85;62.47;101626.13;2028946;29;20040;-76
2022/08/05 04:32:02;;;;;;;0.10;0.10;;;19.30;74.00;;;20.83;62.22;101626.53;2024676;29;20049;-76
2022/08/05 04:33:05;;;;;;;0.10;0.10;;;19.30;74.10;;;20.81;62.37;101620.63;2024826;29;20104;-77
2022/08/05 04:34:11;;;;;;;0.10;0.10;;;19.30;74.10;;;20.82;62.46;101622.19;2031059;29;20052;-76
2022/08/05 04:35:25;;;;;;;0.10;0.10;;;19.30;74.10;;;20.86;62.31;101627.69;2017291;29;20108;-77
2022/08/05 04:36:49;;;;;;;0.10;0.10;;;19.30;74.10;;;20.86;62.29;101635.94;2019781;29;20466;-76
2022/08/05 04:37:52;;;;;;;0.10;0.10;;;19.30;74.10;;;20.84;62.26;101644.56;2023249;29;20044;-76
2022/08/05 04:39:04;;;;;;;0.10;0.10;;;19.30;74.20;;;20.83;62.30;101651.22;2028932;29;20087;-76
2022/08/05 04:40:10;;;;;;;0.10;0.10;;;19.20;74.20;;;20.78;62.60;101646.91;2024501;29;20131;-76
2022/08/05 04:41:12;;;;;;;0.10;0.10;;;19.20;74.30;;;20.77;62.74;101647.31;2029480;29;20531;-77
2022/08/05 04:42:16;;;;;;;0.05;0.05;;;19.20;74.50;;;20.77;62.70;101647.31;2033001;29;20063;-77
2022/08/05 04:43:19;;;;;;;0.08;0.08;;;19.20;74.50;;;20.74;62.78;101642.56;2032422;29;20099;-78
2022/08/05 04:44:23;;;;;;;0.10;0.10;;;19.20;74.50;;;20.74;62.64;101645.31;2030900;29;20067;-77
2022/08/05 04:45:32;;;;;;;0.10;0.10;;;19.20;74.60;;;20.71;62.86;101643.34;2030026;29;20079;-77
2022/08/05 04:46:56;;;;;;;0.10;0.10;;;19.20;74.60;;;20.72;62.76;101647.69;2024975;29;20060;-77
2022/08/05 04:48:05;;;;;;;0.10;0.10;;;19.20;74.50;;;20.69;62.74;101646.47;2029329;29;20535;-77
2022/08/05 04:49:14;;;;;;;0.10;0.10;;;19.20;74.70;;;20.70;62.86;101644.53;2035439;29;20534;-77
2022/08/05 04:50:18;;;;;;;0.10;0.10;;;19.20;74.60;;;20.71;62.62;101646.09;2032174;29;20059;-77
2022/08/05 04:51:42;;;;;;;0.10;0.10;;;19.10;74.60;;;20.71;62.70;101641.41;2027912;29;20622;-77
2022/08/05 04:52:44;;;;;;;0.10;0.10;;;19.10;74.60;;;20.69;62.65;101643.75;2030016;29;20052;-78
2022/08/05 04:53:50;;;;;;;0.10;0.10;;;19.10;74.70;;;20.68;62.78;101644.13;2022193;29;20080;-77
2022/08/05 04:54:54;;;;;;;0.10;0.10;;;19.10;74.70;;;20.66;62.63;101628.06;2022190;29;20524;-77
2022/08/05 04:55:59;;;;;;;0.10;0.10;;;19.10;74.70;;;20.67;62.84;101635.13;2036120;29;20171;-76
2022/08/05 04:57:22;;;;;;;0.10;0.10;;;19.10;74.70;;;20.66;62.51;101636.28;2033472;29;20229;-77